Pedigo, Texas
Current Conditions -  °F | °C
As of 4:55 PM on Saturday 25 Oct 2014 (Local Time) from KJAS Reporting Station
Clear Clear  
Wind Chill: 81°   Ceiling: Unl
Heat Index: 81°   Visibility: 10mi
Dew Point: 53°   Wind: 5mph
Humidity: 38%   Direction: 210°SSW
Pressure: 30.12"   Gusts: NA
Location:  30.7643°N, 94.4448°W
Report Text: KJAS 252155Z AUTO 21004KT 10SM CLR 27/12 A3012 RMK AO2 T02720117
Loading
Personal Weather Stations






























Interactive Weather Map
Tropical Storm Tracking
New forecast layout! Learn more

10-Day Weather Forecast

Advertisements
Track Severe Weather on mobile